Time;durP1;ratioP1;P1;durP2;ratioP2;P2;SDS_P1;SDS_P2;PMS_P1;PMS_P2;Temp;Humidity;BMP_temperature;BMP_pressure;BME280_temperature;BME280_humidity;BME280_pressure;Samples;Min_cycle;Max_cycle;Signal;HPM_P1;HPM_P2
2021/06/02 00:00:06;;;;;;;4.57;3.00;;;;;;;;;;353490;27;1716;-67
2021/06/02 00:00:18;;;;;;;5.15;2.90;;;;;;;;;;353038;27;17112;-65
2021/06/02 00:00:30;;;;;;;7.15;2.92;;;;;;;;;;353431;27;1136;-66
2021/06/02 00:00:43;;;;;;;6.88;2.80;;;;;;;;;;353356;27;989;-64
2021/06/02 00:00:56;;;;;;;5.05;2.83;;;;;;;;;;353451;27;1093;-66
2021/06/02 00:01:11;;;;;;;6.60;2.92;;;;;;;;;;353167;28;17117;-65
2021/06/02 00:01:23;;;;;;;7.40;2.90;;;;;;;;;;352656;28;17920;-68
2021/06/02 00:01:37;;;;;;;6.78;2.90;;;;;;;;;;353310;28;1126;-69
2021/06/02 00:01:56;;;;;;;5.88;3.00;;;;;;;;;;352608;28;17908;-65
2021/06/02 00:02:09;;;;;;;3.58;2.80;;;;;;;;;;349679;28;63573;-68
2021/06/02 00:02:21;;;;;;;4.30;2.67;;;;;;;;;;351985;28;1081;-64
2021/06/02 00:02:33;;;;;;;5.15;2.78;;;;;;;;;;351733;28;1161;-64
2021/06/02 00:02:46;;;;;;;5.95;2.90;;;;;;;;;;351646;28;1086;-65
2021/06/02 00:02:59;;;;;;;4.95;2.83;;;;;;;;;;351314;28;17315;-67
2021/06/02 00:03:13;;;;;;;4.55;2.90;;;;;;;;;;351817;28;1030;-64
2021/06/02 00:03:30;;;;;;;4.18;2.92;;;;;;;;;;352706;28;1114;-66
2021/06/02 00:03:42;;;;;;;5.47;2.95;;;;;;;;;;350951;28;63789;-65
2021/06/02 00:03:57;;;;;;;5.88;3.03;;;;;;;;;;353269;28;1200;-64
2021/06/02 00:04:15;;;;;;;5.18;2.83;;;;;;;;;;351351;28;62541;-68
2021/06/02 00:04:28;;;;;;;5.45;2.72;;;;;;;;;;352743;27;16703;-66
2021/06/02 00:04:44;;;;;;;4.82;2.70;;;;;;;;;;353152;27;1053;-65
2021/06/02 00:05:01;;;;;;;4.47;2.72;;;;;;;;;;351318;27;63935;-67
2021/06/02 00:05:13;;;;;;;4.93;2.80;;;;;;;;;;351293;27;63747;-65
2021/06/02 00:05:26;;;;;;;5.82;2.80;;;;;;;;;;351746;28;1026;-65
2021/06/02 00:05:39;;;;;;;6.30;2.70;;;;;;;;;;351807;28;1434;-68
2021/06/02 00:05:54;;;;;;;4.70;2.72;;;;;;;;;;351889;28;1103;-66
2021/06/02 00:06:07;;;;;;;5.35;3.00;;;;;;;;;;350575;28;40973;-65
2021/06/02 00:06:21;;;;;;;5.45;3.22;;;;;;;;;;351870;28;1097;-67
2021/06/02 00:06:35;;;;;;;4.90;3.30;;;;;;;;;;351177;28;16687;-65
2021/06/02 00:06:48;;;;;;;4.90;3.03;;;;;;;;;;351280;28;16626;-68
2021/06/02 00:07:02;;;;;;;4.97;2.95;;;;;;;;;;351828;28;990;-68
2021/06/02 00:07:24;;;;;;;5.13;3.00;;;;;;;;;;351206;28;17297;-65
2021/06/02 00:07:41;;;;;;;4.18;2.60;;;;;;;;;;351417;28;63474;-69
2021/06/02 00:07:53;;;;;;;3.83;2.70;;;;;;;;;;353183;28;1042;-69
2021/06/02 00:08:07;;;;;;;4.34;2.76;;;;;;;;;;353205;28;1079;-70
2021/06/02 00:08:19;;;;;;;4.40;2.90;;;;;;;;;;352623;28;16632;-69
2021/06/02 00:08:33;;;;;;;3.90;2.80;;;;;;;;;;353137;28;1112;-68
2021/06/02 00:08:45;;;;;;;5.20;2.75;;;;;;;;;;352623;28;17087;-69
2021/06/02 00:08:58;;;;;;;5.50;2.80;;;;;;;;;;353272;28;1053;-69
2021/06/02 00:09:11;;;;;;;5.50;2.80;;;;;;;;;;351649;28;978;-69
2021/06/02 00:09:24;;;;;;;5.10;2.72;;;;;;;;;;351658;28;1104;-68
2021/06/02 00:09:36;;;;;;;4.90;2.80;;;;;;;;;;352211;28;1080;-68
2021/06/02 00:09:49;;;;;;;4.43;2.88;;;;;;;;;;353227;28;1075;-66
2021/06/02 00:10:02;;;;;;;4.90;2.90;;;;;;;;;;353056;28;1141;-67
2021/06/02 00:10:15;;;;;;;4.82;2.83;;;;;;;;;;353138;28;1199;-67
2021/06/02 00:10:27;;;;;;;4.63;2.88;;;;;;;;;;353201;28;1121;-70
2021/06/02 00:10:40;;;;;;;4.22;2.90;;;;;;;;;;353346;28;1200;-66
2021/06/02 00:10:53;;;;;;;4.90;2.95;;;;;;;;;;353010;28;1521;-68
2021/06/02 00:11:05;;;;;;;5.53;3.05;;;;;;;;;;353006;28;1100;-68
2021/06/02 00:11:18;;;;;;;5.45;2.90;;;;;;;;;;353300;27;1046;-68
2021/06/02 00:11:30;;;;;;;5.80;2.80;;;;;;;;;;353536;27;1284;-67
2021/06/02 00:11:43;;;;;;;4.53;2.70;;;;;;;;;;353406;27;1290;-65
2021/06/02 00:11:56;;;;;;;3.65;2.70;;;;;;;;;;353341;27;1164;-69
2021/06/02 00:12:10;;;;;;;4.97;2.90;;;;;;;;;;352749;27;16947;-68
2021/06/02 00:12:22;;;;;;;4.72;2.95;;;;;;;;;;353554;27;1175;-68
2021/06/02 00:12:34;;;;;;;4.20;2.85;;;;;;;;;;353375;27;1175;-65
2021/06/02 00:12:47;;;;;;;4.55;2.80;;;;;;;;;;353492;27;1180;-65
2021/06/02 00:13:00;;;;;;;5.07;3.05;;;;;;;;;;353379;27;1113;-68
2021/06/02 00:13:13;;;;;;;5.93;2.97;;;;;;;;;;353445;27;1141;-65
2021/06/02 00:13:25;;;;;;;5.50;2.78;;;;;;;;;;353349;27;1153;-67
2021/06/02 00:13:37;;;;;;;3.00;2.47;;;;;;;;;;353508;27;1101;-69
2021/06/02 00:13:50;;;;;;;4.32;2.74;;;;;;;;;;353290;27;1109;-65
2021/06/02 00:14:03;;;;;;;5.95;2.90;;;;;;;;;;353365;27;1299;-69
2021/06/02 00:14:17;;;;;;;6.30;3.00;;;;;;;;;;353338;27;1168;-68
2021/06/02 00:14:29;;;;;;;7.38;3.05;;;;;;;;;;352986;27;17114;-65
2021/06/02 00:14:44;;;;;;;7.20;2.83;;;;;;;;;;353183;28;1128;-68
2021/06/02 00:14:56;;;;;;;4.28;2.60;;;;;;;;;;351830;28;40957;-70
2021/06/02 00:15:09;;;;;;;4.45;2.60;;;;;;;;;;353295;28;1081;-69
2021/06/02 00:15:21;;;;;;;5.97;2.72;;;;;;;;;;353072;28;1220;-70
2021/06/02 00:15:33;;;;;;;5.78;2.90;;;;;;;;;;353231;28;1000;-69
2021/06/02 00:15:47;;;;;;;6.03;3.05;;;;;;;;;;351801;28;2052;-65
2021/06/02 00:15:59;;;;;;;6.20;3.17;;;;;;;;;;351696;28;1018;-66
2021/06/02 00:16:11;;;;;;;5.15;3.00;;;;;;;;;;351778;28;1123;-69
2021/06/02 00:16:24;;;;;;;5.18;2.80;;;;;;;;;;351799;28;988;-67
2021/06/02 00:16:38;;;;;;;7.80;2.78;;;;;;;;;;351840;28;1072;-65
2021/06/02 00:16:51;;;;;;;8.00;2.75;;;;;;;;;;351167;28;17047;-66
2021/06/02 00:17:04;;;;;;;5.72;2.90;;;;;;;;;;351737;28;1061;-65
2021/06/02 00:17:17;;;;;;;5.10;2.90;;;;;;;;;;350116;28;1412;-68
2021/06/02 00:17:29;;;;;;;5.28;2.80;;;;;;;;;;350492;28;1212;-65
2021/06/02 00:17:41;;;;;;;6.45;2.88;;;;;;;;;;350969;28;1037;-67
2021/06/02 00:17:54;;;;;;;6.40;2.92;;;;;;;;;;351784;28;1093;-69
2021/06/02 00:18:06;;;;;;;5.30;2.95;;;;;;;;;;351794;28;1097;-68
2021/06/02 00:18:18;;;;;;;5.35;2.90;;;;;;;;;;351815;28;1370;-69
2021/06/02 00:18:31;;;;;;;5.13;2.80;;;;;;;;;;351909;28;1124;-67
2021/06/02 00:18:43;;;;;;;4.75;2.83;;;;;;;;;;351439;28;1029;-65
2021/06/02 00:18:55;;;;;;;4.60;2.95;;;;;;;;;;353184;28;1183;-68
2021/06/02 00:19:08;;;;;;;5.05;3.00;;;;;;;;;;353580;28;1948;-69
2021/06/02 00:19:21;;;;;;;4.18;2.92;;;;;;;;;;353195;28;1172;-70
2021/06/02 00:19:34;;;;;;;4.90;2.85;;;;;;;;;;353157;28;1020;-69
2021/06/02 00:19:46;;;;;;;5.00;2.67;;;;;;;;;;353352;28;1097;-69
2021/06/02 00:19:58;;;;;;;4.22;2.65;;;;;;;;;;351945;28;1088;-67
2021/06/02 00:20:11;;;;;;;4.95;2.78;;;;;;;;;;351636;28;1066;-69
2021/06/02 00:20:23;;;;;;;4.97;2.83;;;;;;;;;;351820;28;1064;-66
2021/06/02 00:20:36;;;;;;;5.32;2.88;;;;;;;;;;351884;28;1004;-67
2021/06/02 00:20:48;;;;;;;4.68;2.78;;;;;;;;;;351688;28;1091;-69
2021/06/02 00:21:00;;;;;;;4.57;2.85;;;;;;;;;;351839;28;1045;-70
2021/06/02 00:21:12;;;;;;;4.22;2.95;;;;;;;;;;351859;28;1125;-66
2021/06/02 00:21:25;;;;;;;5.05;2.95;;;;;;;;;;351927;28;1160;-69
2021/06/02 00:21:37;;;;;;;5.72;3.00;;;;;;;;;;352685;28;1109;-68
2021/06/02 00:21:50;;;;;;;5.60;3.03;;;;;;;;;;353356;28;1097;-65
2021/06/02 00:22:04;;;;;;;5.00;3.00;;;;;;;;;;351656;28;1598;-69
2021/06/02 00:22:16;;;;;;;4.93;2.80;;;;;;;;;;351278;28;16706;-69
2021/06/02 00:22:28;;;;;;;4.20;2.83;;;;;;;;;;351637;28;1181;-69
2021/06/02 00:22:40;;;;;;;5.28;2.83;;;;;;;;;;351867;28;1093;-69
2021/06/02 00:22:52;;;;;;;5.50;2.90;;;;;;;;;;351879;28;1111;-68
2021/06/02 00:23:05;;;;;;;4.43;2.80;;;;;;;;;;351742;28;1168;-70
2021/06/02 00:23:17;;;;;;;3.75;2.72;;;;;;;;;;351738;28;1081;-67
2021/06/02 00:23:29;;;;;;;5.15;2.85;;;;;;;;;;352784;28;1224;-69
2021/06/02 00:23:41;;;;;;;5.88;2.92;;;;;;;;;;353129;28;1089;-69
2021/06/02 00:23:54;;;;;;;5.28;2.97;;;;;;;;;;353367;28;1101;-70
2021/06/02 00:24:06;;;;;;;4.18;2.80;;;;;;;;;;353291;28;1147;-69
2021/06/02 00:24:19;;;;;;;4.15;2.80;;;;;;;;;;353272;27;1007;-68
2021/06/02 00:24:31;;;;;;;5.03;2.80;;;;;;;;;;353420;27;1102;-69
2021/06/02 00:24:43;;;;;;;5.45;2.80;;;;;;;;;;353588;27;1165;-69
2021/06/02 00:24:56;;;;;;;5.43;2.80;;;;;;;;;;353516;27;1167;-69
2021/06/02 00:25:08;;;;;;;4.05;2.60;;;;;;;;;;353226;27;1021;-65
2021/06/02 00:25:21;;;;;;;4.70;2.55;;;;;;;;;;351322;28;1588;-68
2021/06/02 00:25:34;;;;;;;5.28;2.83;;;;;;;;;;348980;28;1426;-69
2021/06/02 00:25:47;;;;;;;5.10;2.85;;;;;;;;;;348829;28;1179;-68
2021/06/02 00:26:00;;;;;;;5.13;2.92;;;;;;;;;;349034;28;1176;-66
2021/06/02 00:26:13;;;;;;;5.05;2.80;;;;;;;;;;348439;28;16709;-65
2021/06/02 00:26:26;;;;;;;4.60;2.80;;;;;;;;;;349081;28;1113;-67
2021/06/02 00:26:39;;;;;;;4.38;2.70;;;;;;;;;;348506;28;16675;-69
2021/06/02 00:26:53;;;;;;;3.33;2.60;;;;;;;;;;348844;28;1112;-68
2021/06/02 00:27:09;;;;;;;4.70;2.72;;;;;;;;;;348339;28;16628;-64
2021/06/02 00:27:22;;;;;;;6.63;3.00;;;;;;;;;;348046;28;62678;-69
2021/06/02 00:27:35;;;;;;;4.75;2.85;;;;;;;;;;352589;28;1133;-67
2021/06/02 00:27:51;;;;;;;3.08;2.60;;;;;;;;;;353591;27;1081;-67
2021/06/02 00:28:06;;;;;;;3.53;2.83;;;;;;;;;;351317;27;62467;-68
2021/06/02 00:28:18;;;;;;;5.05;2.95;;;;;;;;;;353613;28;1191;-65
2021/06/02 00:28:30;;;;;;;5.10;2.90;;;;;;;;;;353284;27;1161;-68
2021/06/02 00:28:43;;;;;;;4.55;2.80;;;;;;;;;;353342;27;1166;-67
2021/06/02 00:28:55;;;;;;;6.13;2.67;;;;;;;;;;353582;27;810;-68
2021/06/02 00:29:08;;;;;;;5.25;2.60;;;;;;;;;;353469;27;1205;-68
2021/06/02 00:29:21;;;;;;;4.82;2.55;;;;;;;;;;353474;27;1172;-66
2021/06/02 00:29:34;;;;;;;4.53;2.60;;;;;;;;;;353451;27;1980;-68
2021/06/02 00:29:46;;;;;;;4.78;2.63;;;;;;;;;;353381;27;1251;-66
2021/06/02 00:30:00;;;;;;;4.30;2.72;;;;;;;;;;353499;27;1086;-69
2021/06/02 00:30:13;;;;;;;3.00;2.65;;;;;;;;;;352967;27;16025;-68
2021/06/02 00:30:25;;;;;;;3.50;2.60;;;;;;;;;;353506;27;1094;-65
2021/06/02 00:30:39;;;;;;;5.90;2.70;;;;;;;;;;353459;27;1093;-69
2021/06/02 00:30:51;;;;;;;7.10;2.78;;;;;;;;;;353391;27;1290;-68
2021/06/02 00:31:05;;;;;;;6.07;2.70;;;;;;;;;;353403;27;1267;-68
2021/06/02 00:31:18;;;;;;;5.13;2.65;;;;;;;;;;352859;27;16933;-68
2021/06/02 00:31:31;;;;;;;5.05;2.70;;;;;;;;;;353447;27;1116;-67
2021/06/02 00:31:45;;;;;;;6.05;2.70;;;;;;;;;;353398;27;1053;-69
2021/06/02 00:31:57;;;;;;;6.13;2.60;;;;;;;;;;352699;28;16841;-66
2021/06/02 00:32:11;;;;;;;4.47;2.78;;;;;;;;;;353221;28;1058;-67
2021/06/02 00:32:23;;;;;;;4.10;2.88;;;;;;;;;;353124;28;1172;-65
2021/06/02 00:32:36;;;;;;;4.15;2.90;;;;;;;;;;353192;28;1089;-66
2021/06/02 00:32:49;;;;;;;3.33;2.90;;;;;;;;;;353152;28;1045;-68
2021/06/02 00:33:02;;;;;;;4.45;2.80;;;;;;;;;;352581;28;16793;-65
2021/06/02 00:33:14;;;;;;;5.07;2.70;;;;;;;;;;353174;28;1060;-65
2021/06/02 00:33:27;;;;;;;4.45;2.70;;;;;;;;;;352930;28;1104;-68
2021/06/02 00:33:40;;;;;;;3.33;2.67;;;;;;;;;;353099;28;1144;-65
2021/06/02 00:33:54;;;;;;;3.63;2.80;;;;;;;;;;353281;28;1098;-66
2021/06/02 00:34:06;;;;;;;4.13;2.95;;;;;;;;;;353492;27;1091;-65
2021/06/02 00:34:19;;;;;;;4.15;3.00;;;;;;;;;;353501;27;1275;-66
2021/06/02 00:34:31;;;;;;;3.33;2.70;;;;;;;;;;353144;28;1078;-65
2021/06/02 00:34:44;;;;;;;3.05;2.60;;;;;;;;;;353210;28;1098;-65
2021/06/02 00:34:56;;;;;;;3.53;2.78;;;;;;;;;;353225;28;1156;-65
2021/06/02 00:35:09;;;;;;;4.90;3.20;;;;;;;;;;351907;28;1065;-66
2021/06/02 00:35:21;;;;;;;4.70;3.00;;;;;;;;;;351917;28;1106;-65
2021/06/02 00:35:33;;;;;;;4.47;2.80;;;;;;;;;;351647;28;1173;-67
2021/06/02 00:35:45;;;;;;;5.25;3.00;;;;;;;;;;351877;28;1101;-66
2021/06/02 00:35:59;;;;;;;4.68;3.00;;;;;;;;;;351658;28;981;-66
2021/06/02 00:36:12;;;;;;;4.28;2.88;;;;;;;;;;351603;28;1086;-65
2021/06/02 00:36:26;;;;;;;3.97;2.88;;;;;;;;;;351543;28;1093;-65
2021/06/02 00:36:43;;;;;;;3.45;2.80;;;;;;;;;;352768;28;16825;-66
2021/06/02 00:36:57;;;;;;;4.82;2.83;;;;;;;;;;351093;28;63765;-68
2021/06/02 00:37:11;;;;;;;4.55;2.75;;;;;;;;;;351890;28;40058;-66
2021/06/02 00:37:23;;;;;;;3.90;2.75;;;;;;;;;;353408;27;1125;-65
2021/06/02 00:37:35;;;;;;;4.65;2.80;;;;;;;;;;353499;27;1108;-65
2021/06/02 00:37:48;;;;;;;4.57;2.78;;;;;;;;;;353975;27;1080;-70
2021/06/02 00:38:01;;;;;;;4.15;2.70;;;;;;;;;;353518;27;1030;-65
2021/06/02 00:38:13;;;;;;;4.20;2.70;;;;;;;;;;353339;27;1110;-66
2021/06/02 00:38:25;;;;;;;4.30;2.63;;;;;;;;;;353353;27;1159;-67
2021/06/02 00:38:39;;;;;;;3.60;2.60;;;;;;;;;;353457;27;1074;-68
2021/06/02 00:38:52;;;;;;;4.00;2.80;;;;;;;;;;353130;27;16705;-65
2021/06/02 00:39:06;;;;;;;3.75;2.70;;;;;;;;;;353352;27;1085;-66
2021/06/02 00:39:18;;;;;;;3.70;2.70;;;;;;;;;;352765;27;16631;-65
2021/06/02 00:39:30;;;;;;;4.68;2.70;;;;;;;;;;353315;27;1080;-66
2021/06/02 00:39:47;;;;;;;5.25;2.65;;;;;;;;;;353760;27;1172;-68
2021/06/02 00:39:59;;;;;;;5.40;2.70;;;;;;;;;;351634;27;63770;-65
2021/06/02 00:40:20;;;;;;;5.07;2.80;;;;;;;;;;353692;27;1121;-65
2021/06/02 00:40:40;;;;;;;4.78;2.90;;;;;;;;;;351584;27;62361;-66
2021/06/02 00:40:52;;;;;;;4.57;3.03;;;;;;;;;;351653;27;63528;-69
2021/06/02 00:41:05;;;;;;;3.30;2.75;;;;;;;;;;353848;27;1136;-65
2021/06/02 00:41:17;;;;;;;3.05;2.72;;;;;;;;;;353802;27;1120;-66
2021/06/02 00:41:29;;;;;;;3.30;2.70;;;;;;;;;;353851;27;1109;-65
2021/06/02 00:41:42;;;;;;;4.30;2.80;;;;;;;;;;353784;27;1085;-66
2021/06/02 00:41:55;;;;;;;5.07;2.72;;;;;;;;;;353720;27;1069;-66
2021/06/02 00:42:07;;;;;;;5.35;2.83;;;;;;;;;;353734;27;1166;-67
2021/06/02 00:42:19;;;;;;;4.90;2.90;;;;;;;;;;353700;27;1172;-65
2021/06/02 00:42:31;;;;;;;3.88;2.83;;;;;;;;;;353654;27;1149;-66
2021/06/02 00:42:44;;;;;;;3.38;2.55;;;;;;;;;;353747;27;989;-68
2021/06/02 00:42:57;;;;;;;3.50;2.60;;;;;;;;;;353078;27;17070;-67
2021/06/02 00:43:09;;;;;;;5.18;2.90;;;;;;;;;;354060;27;1077;-66
2021/06/02 00:43:21;;;;;;;4.82;3.00;;;;;;;;;;353542;27;1076;-68
2021/06/02 00:43:34;;;;;;;5.56;3.04;;;;;;;;;;353751;27;1069;-69
2021/06/02 00:43:47;;;;;;;4.40;2.78;;;;;;;;;;353469;27;1108;-65
2021/06/02 00:43:59;;;;;;;4.55;2.75;;;;;;;;;;353329;27;990;-69
2021/06/02 00:44:12;;;;;;;5.25;3.00;;;;;;;;;;353637;27;1061;-66
2021/06/02 00:44:25;;;;;;;4.38;3.00;;;;;;;;;;352947;27;17803;-66
2021/06/02 00:44:37;;;;;;;4.00;2.80;;;;;;;;;;353438;27;1157;-65
2021/06/02 00:44:50;;;;;;;4.68;2.70;;;;;;;;;;353366;27;1089;-66
2021/06/02 00:45:02;;;;;;;5.35;2.70;;;;;;;;;;353358;27;1171;-66
2021/06/02 00:45:16;;;;;;;5.75;2.92;;;;;;;;;;353501;27;1132;-67
2021/06/02 00:45:30;;;;;;;4.95;2.90;;;;;;;;;;352885;27;18245;-65
2021/06/02 00:45:43;;;;;;;4.88;2.90;;;;;;;;;;352847;27;16730;-66
2021/06/02 00:45:55;;;;;;;5.20;2.90;;;;;;;;;;353635;27;1160;-66
2021/06/02 00:46:07;;;;;;;4.80;2.90;;;;;;;;;;353706;27;1093;-65
2021/06/02 00:46:21;;;;;;;4.28;2.97;;;;;;;;;;353740;27;1001;-65
2021/06/02 00:46:36;;;;;;;4.80;3.05;;;;;;;;;;353718;27;1191;-66
2021/06/02 00:46:50;;;;;;;5.78;3.50;;;;;;;;;;352364;27;39746;-66
2021/06/02 00:47:02;;;;;;;5.05;3.42;;;;;;;;;;353230;27;16606;-65
2021/06/02 00:47:16;;;;;;;4.90;3.53;;;;;;;;;;353778;27;1108;-65
2021/06/02 00:47:28;;;;;;;5.43;3.72;;;;;;;;;;353700;27;1153;-65
2021/06/02 00:47:41;;;;;;;5.34;3.74;;;;;;;;;;353790;27;1086;-66
2021/06/02 00:47:54;;;;;;;4.63;3.30;;;;;;;;;;353420;28;1094;-65
2021/06/02 00:48:06;;;;;;;3.78;3.13;;;;;;;;;;353402;27;994;-65
2021/06/02 00:48:19;;;;;;;5.03;3.40;;;;;;;;;;353509;27;1105;-64
2021/06/02 00:48:32;;;;;;;5.15;3.25;;;;;;;;;;353336;27;1050;-64
2021/06/02 00:48:44;;;;;;;4.20;3.08;;;;;;;;;;353373;27;1415;-64
2021/06/02 00:48:59;;;;;;;4.50;2.90;;;;;;;;;;353507;27;1099;-65
2021/06/02 00:49:12;;;;;;;4.70;2.88;;;;;;;;;;352865;27;16698;-65
2021/06/02 00:49:25;;;;;;;4.88;3.10;;;;;;;;;;352894;27;17174;-64
2021/06/02 00:49:37;;;;;;;4.53;3.25;;;;;;;;;;353554;27;1271;-65
2021/06/02 00:49:50;;;;;;;5.45;3.20;;;;;;;;;;353801;27;1097;-65
2021/06/02 00:50:05;;;;;;;5.53;3.10;;;;;;;;;;353702;27;1160;-64
2021/06/02 00:50:17;;;;;;;5.30;2.85;;;;;;;;;;352303;27;40191;-68
2021/06/02 00:50:30;;;;;;;5.18;2.90;;;;;;;;;;353572;27;1129;-68
2021/06/02 00:50:46;;;;;;;5.25;3.05;;;;;;;;;;352355;28;1145;-69
2021/06/02 00:50:59;;;;;;;6.10;3.13;;;;;;;;;;350247;28;64884;-65
2021/06/02 00:51:12;;;;;;;5.30;2.97;;;;;;;;;;352486;28;1123;-65
2021/06/02 00:51:24;;;;;;;3.53;2.83;;;;;;;;;;352272;28;1072;-69
2021/06/02 00:51:36;;;;;;;3.38;2.70;;;;;;;;;;352281;27;1180;-64
2021/06/02 00:51:58;;;;;;;4.97;2.90;;;;;;;;;;352430;28;1137;-65
2021/06/02 00:52:11;;;;;;;5.47;3.22;;;;;;;;;;350074;28;63419;-67
2021/06/02 00:52:25;;;;;;;4.18;2.85;;;;;;;;;;352192;28;1113;-66
2021/06/02 00:52:38;;;;;;;4.90;2.90;;;;;;;;;;350926;28;39747;-67
2021/06/02 00:52:50;;;;;;;5.45;3.10;;;;;;;;;;352179;27;1144;-66
2021/06/02 00:53:04;;;;;;;5.72;3.20;;;;;;;;;;352499;28;1363;-68
2021/06/02 00:53:17;;;;;;;5.50;3.10;;;;;;;;;;351983;28;1119;-68
2021/06/02 00:53:29;;;;;;;4.55;2.90;;;;;;;;;;351508;28;17937;-68
2021/06/02 00:53:41;;;;;;;5.32;2.90;;;;;;;;;;352470;28;756;-67
2021/06/02 00:53:54;;;;;;;5.07;2.80;;;;;;;;;;352116;28;1153;-69
2021/06/02 00:54:07;;;;;;;5.35;3.05;;;;;;;;;;350777;28;1720;-68
2021/06/02 00:54:20;;;;;;;4.72;2.97;;;;;;;;;;350110;28;16694;-66
2021/06/02 00:54:34;;;;;;;4.30;2.92;;;;;;;;;;350582;28;1223;-69
2021/06/02 00:54:46;;;;;;;4.78;2.90;;;;;;;;;;350550;28;1155;-69
2021/06/02 00:55:00;;;;;;;4.60;3.00;;;;;;;;;;350997;28;1168;-69
2021/06/02 00:55:13;;;;;;;4.20;3.00;;;;;;;;;;350426;28;16813;-68
2021/06/02 00:55:25;;;;;;;4.30;2.83;;;;;;;;;;352076;28;1072;-69
2021/06/02 00:55:37;;;;;;;6.10;2.90;;;;;;;;;;352054;28;1098;-69
2021/06/02 00:55:49;;;;;;;5.80;3.00;;;;;;;;;;350769;28;1167;-70
2021/06/02 00:56:03;;;;;;;5.63;3.00;;;;;;;;;;350692;28;1171;-69
2021/06/02 00:56:15;;;;;;;5.18;2.90;;;;;;;;;;351539;28;17121;-67
2021/06/02 00:56:41;;;;;;;6.10;3.00;;;;;;;;;;352115;28;1120;-67
2021/06/02 00:57:02;;;;;;;6.38;2.90;;;;;;;;;;349829;28;63314;-67
2021/06/02 00:57:15;;;;;;;4.45;2.80;;;;;;;;;;349799;28;63685;-64
2021/06/02 00:57:28;;;;;;;4.25;2.90;;;;;;;;;;351550;28;17196;-66
2021/06/02 00:57:46;;;;;;;4.50;2.92;;;;;;;;;;352074;28;1090;-66
2021/06/02 00:57:59;;;;;;;3.65;2.55;;;;;;;;;;349937;28;63645;-68
2021/06/02 00:58:43;;;;;;;3.72;2.60;;;;;;;;;;352133;28;1124;-68
2021/06/02 00:58:58;;;;;;;4.35;2.63;;;;;;;;;;344122;28;64792;-68
2021/06/02 00:59:10;;;;;;;4.57;2.78;;;;;;;;;;345738;28;17736;-71
2021/06/02 00:59:27;;;;;;;4.63;2.85;;;;;;;;;;346521;28;1102;-70
2021/06/02 00:59:41;;;;;;;5.15;2.80;;;;;;;;;;344300;28;62616;-70
2021/06/02 01:00:09;;;;;;;6.75;2.92;;;;;;;;;;346510;28;1048;-69
2021/06/02 01:00:22;;;;;;;5.28;2.78;;;;;;;;;;344920;28;86291;-70
2021/06/02 01:00:35;;;;;;;4.10;2.80;;;;;;;;;;347835;28;1371;-70
2021/06/02 01:00:48;;;;;;;4.70;2.80;;;;;;;;;;347757;28;1321;-70
2021/06/02 01:01:00;;;;;;;4.70;2.80;;;;;;;;;;347724;28;1129;-69
2021/06/02 01:01:13;;;;;;;4.07;2.67;;;;;;;;;;347942;28;1485;-68
2021/06/02 01:01:26;;;;;;;5.78;2.90;;;;;;;;;;344529;28;14995;-69
2021/06/02 01:01:38;;;;;;;5.65;3.00;;;;;;;;;;345056;28;1145;-71
2021/06/02 01:01:51;;;;;;;4.18;2.97;;;;;;;;;;345498;28;1177;-70
2021/06/02 01:02:03;;;;;;;6.20;2.90;;;;;;;;;;345234;28;1133;-68
2021/06/02 01:02:16;;;;;;;6.78;3.00;;;;;;;;;;345092;28;1166;-66
2021/06/02 01:02:29;;;;;;;5.22;3.00;;;;;;;;;;344454;28;16693;-70
2021/06/02 01:02:45;;;;;;;5.28;3.00;;;;;;;;;;345058;28;1203;-65
2021/06/02 01:02:59;;;;;;;4.72;2.90;;;;;;;;;;343051;28;63928;-70
2021/06/02 01:03:11;;;;;;;4.15;2.80;;;;;;;;;;344933;28;1177;-67
2021/06/02 01:03:26;;;;;;;5.70;2.90;;;;;;;;;;345578;28;1126;-68
2021/06/02 01:03:39;;;;;;;5.65;2.88;;;;;;;;;;346423;28;40152;-66
2021/06/02 01:03:52;;;;;;;3.80;2.60;;;;;;;;;;347806;28;1641;-67
2021/06/02 01:04:04;;;;;;;3.53;2.53;;;;;;;;;;347957;28;1081;-65
2021/06/02 01:04:17;;;;;;;4.00;2.60;;;;;;;;;;346306;28;1042;-67
2021/06/02 01:04:29;;;;;;;3.67;2.60;;;;;;;;;;346409;28;1089;-68
2021/06/02 01:04:42;;;;;;;3.67;2.80;;;;;;;;;;346432;28;1098;-68
2021/06/02 01:04:54;;;;;;;3.58;2.90;;;;;;;;;;344959;28;1801;-68
2021/06/02 01:05:09;;;;;;;4.80;3.05;;;;;;;;;;345268;28;1098;-67
2021/06/02 01:05:23;;;;;;;5.35;2.95;;;;;;;;;;343323;28;17149;-68
2021/06/02 01:05:35;;;;;;;7.32;2.85;;;;;;;;;;343152;28;16712;-68
2021/06/02 01:05:47;;;;;;;6.93;2.83;;;;;;;;;;343590;28;1170;-68
2021/06/02 01:06:00;;;;;;;6.63;3.05;;;;;;;;;;343744;28;1034;-65
2021/06/02 01:06:12;;;;;;;4.03;3.00;;;;;;;;;;343759;28;1418;-69
2021/06/02 01:06:26;;;;;;;4.13;2.92;;;;;;;;;;345314;28;1334;-67
2021/06/02 01:06:40;;;;;;;5.30;2.90;;;;;;;;;;344684;28;16623;-66
2021/06/02 01:06:52;;;;;;;6.40;2.78;;;;;;;;;;345240;28;1097;-66
2021/06/02 01:07:04;;;;;;;5.65;2.60;;;;;;;;;;346698;28;1097;-66
2021/06/02 01:07:20;;;;;;;3.42;2.56;;;;;;;;;;346644;28;1101;-68
2021/06/02 01:07:32;;;;;;;3.53;2.72;;;;;;;;;;346650;28;39876;-67
2021/06/02 01:07:45;;;;;;;4.53;2.95;;;;;;;;;;346407;28;1366;-68
2021/06/02 01:08:00;;;;;;;4.20;2.85;;;;;;;;;;346301;28;1099;-66
2021/06/02 01:08:13;;;;;;;4.72;2.72;;;;;;;;;;345057;28;39827;-64
2021/06/02 01:08:26;;;;;;;5.00;2.63;;;;;;;;;;346337;28;1384;-66
2021/06/02 01:08:39;;;;;;;5.40;2.70;;;;;;;;;;346875;28;1042;-66
2021/06/02 01:08:52;;;;;;;4.97;2.80;;;;;;;;;;346516;28;1176;-67
2021/06/02 01:09:05;;;;;;;4.45;2.80;;;;;;;;;;345642;28;16947;-67
2021/06/02 01:09:20;;;;;;;4.82;2.90;;;;;;;;;;346551;28;1172;-68
2021/06/02 01:09:34;;;;;;;5.68;2.90;;;;;;;;;;345172;28;39509;-68
2021/06/02 01:09:48;;;;;;;4.70;2.83;;;;;;;;;;346966;28;1182;-67
2021/06/02 01:10:00;;;;;;;3.80;2.88;;;;;;;;;;347181;28;16134;-66
2021/06/02 01:10:13;;;;;;;3.88;2.75;;;;;;;;;;347838;28;1014;-68
2021/06/02 01:10:27;;;;;;;4.18;2.60;;;;;;;;;;348138;28;1109;-66
2021/06/02 01:10:39;;;;;;;4.22;2.80;;;;;;;;;;347234;28;16865;-67
2021/06/02 01:10:51;;;;;;;5.05;2.90;;;;;;;;;;347707;28;1378;-66
2021/06/02 01:11:04;;;;;;;4.65;2.85;;;;;;;;;;347780;28;1245;-66
2021/06/02 01:11:16;;;;;;;5.63;2.70;;;;;;;;;;347856;28;1041;-66
2021/06/02 01:11:29;;;;;;;5.40;2.83;;;;;;;;;;346550;28;1101;-67
2021/06/02 01:11:42;;;;;;;4.50;2.83;;;;;;;;;;346373;28;1115;-66
2021/06/02 01:11:54;;;;;;;5.65;2.90;;;;;;;;;;346203;28;1161;-67
2021/06/02 01:12:06;;;;;;;5.55;2.75;;;;;;;;;;346582;28;1077;-65
2021/06/02 01:12:23;;;;;;;4.88;2.78;;;;;;;;;;346433;28;1105;-67
2021/06/02 01:12:35;;;;;;;5.35;3.10;;;;;;;;;;344181;28;64032;-68
2021/06/02 01:12:48;;;;;;;4.07;2.90;;;;;;;;;;346329;28;1164;-65
2021/06/02 01:13:02;;;;;;;4.45;2.67;;;;;;;;;;346072;28;17097;-66
2021/06/02 01:13:15;;;;;;;5.40;2.78;;;;;;;;;;345964;28;17311;-67
2021/06/02 01:13:28;;;;;;;7.07;3.00;;;;;;;;;;346833;28;1169;-67
2021/06/02 01:13:42;;;;;;;8.90;3.20;;;;;;;;;;347208;28;16631;-65
2021/06/02 01:13:57;;;;;;;6.00;2.85;;;;;;;;;;345483;28;63845;-67
2021/06/02 01:14:09;;;;;;;4.97;2.67;;;;;;;;;;347749;28;1031;-66
2021/06/02 01:14:22;;;;;;;5.30;2.47;;;;;;;;;;347806;28;1000;-66
2021/06/02 01:14:35;;;;;;;6.60;2.70;;;;;;;;;;347852;28;1399;-66
2021/06/02 01:14:48;;;;;;;6.40;2.92;;;;;;;;;;347779;28;1123;-65
2021/06/02 01:15:00;;;;;;;6.80;3.00;;;;;;;;;;347861;28;1090;-66
2021/06/02 01:15:12;;;;;;;5.38;2.88;;;;;;;;;;347959;28;1090;-68
2021/06/02 01:15:26;;;;;;;3.92;2.88;;;;;;;;;;348056;28;1107;-67
2021/06/02 01:15:38;;;;;;;4.35;3.05;;;;;;;;;;346583;28;1081;-68
2021/06/02 01:15:51;;;;;;;4.30;3.00;;;;;;;;;;346523;28;1177;-67
2021/06/02 01:16:04;;;;;;;3.72;2.90;;;;;;;;;;346561;28;1030;-65
2021/06/02 01:16:17;;;;;;;3.78;3.00;;;;;;;;;;346526;28;1083;-65
2021/06/02 01:16:31;;;;;;;4.20;2.95;;;;;;;;;;345897;28;17315;-67
2021/06/02 01:16:44;;;;;;;5.28;2.88;;;;;;;;;;345947;28;16901;-67
2021/06/02 01:16:57;;;;;;;4.90;2.80;;;;;;;;;;346592;28;1195;-65
2021/06/02 01:17:17;;;;;;;4.13;2.60;;;;;;;;;;346328;28;1185;-68
2021/06/02 01:17:31;;;;;;;3.13;2.60;;;;;;;;;;344159;28;63125;-68
2021/06/02 01:17:44;;;;;;;3.92;2.78;;;;;;;;;;344811;28;16701;-65
2021/06/02 01:17:56;;;;;;;5.05;2.83;;;;;;;;;;345363;28;1079;-68
2021/06/02 01:18:09;;;;;;;5.70;2.88;;;;;;;;;;345259;28;982;-65
2021/06/02 01:18:22;;;;;;;4.63;2.83;;;;;;;;;;344538;28;16979;-67
2021/06/02 01:18:34;;;;;;;5.38;2.65;;;;;;;;;;345304;28;1169;-67
2021/06/02 01:18:47;;;;;;;5.95;2.70;;;;;;;;;;345196;28;1050;-67
2021/06/02 01:19:00;;;;;;;4.95;2.65;;;;;;;;;;346218;28;1070;-66
2021/06/02 01:19:12;;;;;;;3.50;2.80;;;;;;;;;;346431;28;1118;-67
2021/06/02 01:19:25;;;;;;;3.50;2.80;;;;;;;;;;346530;28;1158;-67
2021/06/02 01:19:37;;;;;;;4.20;2.90;;;;;;;;;;346559;28;1122;-66
2021/06/02 01:19:51;;;;;;;5.63;2.90;;;;;;;;;;347700;28;1066;-67
2021/06/02 01:20:04;;;;;;;6.53;2.80;;;;;;;;;;346291;28;41161;-68
2021/06/02 01:20:17;;;;;;;5.05;2.70;;;;;;;;;;347594;28;1434;-64
2021/06/02 01:20:29;;;;;;;4.50;2.65;;;;;;;;;;346415;28;1235;-66
2021/06/02 01:20:42;;;;;;;4.90;2.80;;;;;;;;;;346437;28;1140;-68
2021/06/02 01:20:56;;;;;;;5.78;2.90;;;;;;;;;;346563;28;1129;-68
2021/06/02 01:21:11;;;;;;;6.45;3.05;;;;;;;;;;345621;28;16622;-68
2021/06/02 01:21:24;;;;;;;6.72;2.95;;;;;;;;;;345352;28;39778;-68
2021/06/02 01:21:40;;;;;;;4.65;2.78;;;;;;;;;;346397;28;1067;-68
2021/06/02 01:21:53;;;;;;;3.67;2.80;;;;;;;;;;344345;28;63952;-67
2021/06/02 01:22:05;;;;;;;4.70;3.10;;;;;;;;;;346417;28;1171;-68